sensor_id;sensor_type;location;lat;lon;timestamp;temperature;humidity
24103;DHT22;12278;53.058;9.028;2023-04-01T00:03:14;10.40;99.90
24103;DHT22;12278;53.058;9.028;2023-04-01T00:07:14;10.40;99.90
24103;DHT22;12278;53.058;9.028;2023-04-01T00:11:16;10.40;99.90
24103;DHT22;12278;53.058;9.028;2023-04-01T00:15:17;10.40;99.90
24103;DHT22;12278;53.058;9.028;2023-04-01T00:19:17;10.40;99.90
24103;DHT22;12278;53.058;9.028;2023-04-01T00:23:19;10.30;99.90
24103;DHT22;12278;53.058;9.028;2023-04-01T00:27:20;10.40;99.90
24103;DHT22;12278;53.058;9.028;2023-04-01T00:31:20;10.40;99.90
24103;DHT22;12278;53.058;9.028;2023-04-01T00:35:21;10.40;99.90
24103;DHT22;12278;53.058;9.028;2023-04-01T00:39:22;10.40;99.90
24103;DHT22;12278;53.058;9.028;2023-04-01T00:43:23;10.40;99.90
24103;DHT22;12278;53.058;9.028;2023-04-01T00:47:25;10.40;99.90
24103;DHT22;12278;53.058;9.028;2023-04-01T00:51:29;10.30;99.90
24103;DHT22;12278;53.058;9.028;2023-04-01T00:55:32;10.30;99.90
24103;DHT22;12278;53.058;9.028;2023-04-01T00:59:37;10.40;99.90
24103;DHT22;12278;53.058;9.028;2023-04-01T01:03:39;10.30;99.90
24103;DHT22;12278;53.058;9.028;2023-04-01T01:08:11;10.30;99.90
24103;DHT22;12278;53.058;9.028;2023-04-01T01:12:18;10.30;99.90
24103;DHT22;12278;53.058;9.028;2023-04-01T01:16:28;10.30;99.90
24103;DHT22;12278;53.058;9.028;2023-04-01T01:20:49;10.30;99.90
24103;DHT22;12278;53.058;9.028;2023-04-01T01:38:13;10.30;99.90
24103;DHT22;12278;53.058;9.028;2023-04-01T01:42:16;10.30;99.90
24103;DHT22;12278;53.058;9.028;2023-04-01T01:46:21;10.30;99.90
24103;DHT22;12278;53.058;9.028;2023-04-01T01:50:24;10.30;99.90
24103;DHT22;12278;53.058;9.028;2023-04-01T01:54:26;10.30;99.90
24103;DHT22;12278;53.058;9.028;2023-04-01T01:58:36;10.30;99.90
24103;DHT22;12278;53.058;9.028;2023-04-01T02:02:43;10.30;99.90
24103;DHT22;12278;53.058;9.028;2023-04-01T02:06:50;10.30;99.90
24103;DHT22;12278;53.058;9.028;2023-04-01T02:11:05;10.30;99.90
24103;DHT22;12278;53.058;9.028;2023-04-01T02:15:09;10.30;99.90
24103;DHT22;12278;53.058;9.028;2023-04-01T02:19:12;10.20;99.90
24103;DHT22;12278;53.058;9.028;2023-04-01T02:23:13;10.30;99.90
24103;DHT22;12278;53.058;9.028;2023-04-01T02:27:14;10.20;99.90
24103;DHT22;12278;53.058;9.028;2023-04-01T02:31:15;10.20;99.90
24103;DHT22;12278;53.058;9.028;2023-04-01T02:35:17;10.20;99.90
24103;DHT22;12278;53.058;9.028;2023-04-01T02:39:18;10.30;99.90
24103;DHT22;12278;53.058;9.028;2023-04-01T02:43:19;10.30;99.90
24103;DHT22;12278;53.058;9.028;2023-04-01T02:47:21;10.20;99.90
24103;DHT22;12278;53.058;9.028;2023-04-01T02:51:21;10.30;99.90
24103;DHT22;12278;53.058;9.028;2023-04-01T02:55:22;10.20;99.90
24103;DHT22;12278;53.058;9.028;2023-04-01T02:59:23;10.20;99.90
24103;DHT22;12278;53.058;9.028;2023-04-01T03:03:23;10.20;99.90
24103;DHT22;12278;53.058;9.028;2023-04-01T03:07:24;10.20;99.90
24103;DHT22;12278;53.058;9.028;2023-04-01T03:11:25;10.20;99.90
24103;DHT22;12278;53.058;9.028;2023-04-01T03:15:26;10.10;99.90
24103;DHT22;12278;53.058;9.028;2023-04-01T03:19:27;10.10;99.90
24103;DHT22;12278;53.058;9.028;2023-04-01T03:23:27;10.10;99.90
24103;DHT22;12278;53.058;9.028;2023-04-01T03:27:28;10.10;99.90
24103;DHT22;12278;53.058;9.028;2023-04-01T03:31:29;10.10;99.90
24103;DHT22;12278;53.058;9.028;2023-04-01T03:35:29;10.10;99.90
24103;DHT22;12278;53.058;9.028;2023-04-01T03:39:31;10.20;99.90
24103;DHT22;12278;53.058;9.028;2023-04-01T03:43:32;10.10;99.90
24103;DHT22;12278;53.058;9.028;2023-04-01T03:47:33;10.10;99.90
24103;DHT22;12278;53.058;9.028;2023-04-01T03:51:34;10.10;99.90
24103;DHT22;12278;53.058;9.028;2023-04-01T03:55:36;10.10;99.90
24103;DHT22;12278;53.058;9.028;2023-04-01T03:59:38;10.00;99.90
24103;DHT22;12278;53.058;9.028;2023-04-01T04:03:38;10.10;99.90
24103;DHT22;12278;53.058;9.028;2023-04-01T04:07:39;10.00;99.90
24103;DHT22;12278;53.058;9.028;2023-04-01T04:11:39;10.00;99.90
24103;DHT22;12278;53.058;9.028;2023-04-01T04:15:40;10.00;99.90
24103;DHT22;12278;53.058;9.028;2023-04-01T04:19:41;10.00;99.90
24103;DHT22;12278;53.058;9.028;2023-04-01T04:23:42;10.00;99.90
24103;DHT22;12278;53.058;9.028;2023-04-01T04:27:43;10.00;99.90
24103;DHT22;12278;53.058;9.028;2023-04-01T04:31:44;9.90;99.90
24103;DHT22;12278;53.058;9.028;2023-04-01T04:35:45;9.90;99.90
24103;DHT22;12278;53.058;9.028;2023-04-01T04:39:45;10.00;99.90
24103;DHT22;12278;53.058;9.028;2023-04-01T04:43:51;9.90;99.90
24103;DHT22;12278;53.058;9.028;2023-04-01T04:47:52;9.90;99.90
24103;DHT22;12278;53.058;9.028;2023-04-01T04:51:53;9.90;99.90
24103;DHT22;12278;53.058;9.028;2023-04-01T04:55:55;9.80;99.90
24103;DHT22;12278;53.058;9.028;2023-04-01T04:59:55;9.90;99.90
24103;DHT22;12278;53.058;9.028;2023-04-01T05:03:56;9.80;99.90
24103;DHT22;12278;53.058;9.028;2023-04-01T05:07:57;9.90;99.90
24103;DHT22;12278;53.058;9.028;2023-04-01T05:11:57;9.90;99.90
24103;DHT22;12278;53.058;9.028;2023-04-01T05:15:58;9.90;99.90
24103;DHT22;12278;53.058;9.028;2023-04-01T05:19:59;9.90;99.90
24103;DHT22;12278;53.058;9.028;2023-04-01T05:23:59;9.90;99.90
24103;DHT22;12278;53.058;9.028;2023-04-01T05:28:00;9.90;99.90
24103;DHT22;12278;53.058;9.028;2023-04-01T05:32:01;10.00;99.90
24103;DHT22;12278;53.058;9.028;2023-04-01T05:36:13;9.90;99.90
24103;DHT22;12278;53.058;9.028;2023-04-01T05:40:14;10.00;99.90
24103;DHT22;12278;53.058;9.028;2023-04-01T05:44:14;10.00;99.90
24103;DHT22;12278;53.058;9.028;2023-04-01T05:48:15;10.10;99.90
24103;DHT22;12278;53.058;9.028;2023-04-01T05:52:16;10.00;99.90
24103;DHT22;12278;53.058;9.028;2023-04-01T05:56:16;10.10;99.90
24103;DHT22;12278;53.058;9.028;2023-04-01T06:00:17;10.10;99.90
24103;DHT22;12278;53.058;9.028;2023-04-01T06:04:19;10.00;99.90
24103;DHT22;12278;53.058;9.028;2023-04-01T06:08:20;10.10;99.90
24103;DHT22;12278;53.058;9.028;2023-04-01T06:12:29;10.10;99.90
24103;DHT22;12278;53.058;9.028;2023-04-01T06:33:46;10.20;99.90
24103;DHT22;12278;53.058;9.028;2023-04-01T06:46:18;10.10;99.90
24103;DHT22;12278;53.058;9.028;2023-04-01T06:54:31;10.30;99.90
24103;DHT22;12278;53.058;9.028;2023-04-01T06:58:36;10.30;99.90
24103;DHT22;12278;53.058;9.028;2023-04-01T07:02:39;10.30;99.90
24103;DHT22;12278;53.058;9.028;2023-04-01T07:06:48;10.40;99.90
24103;DHT22;12278;53.058;9.028;2023-04-01T07:10:52;10.40;99.90
24103;DHT22;12278;53.058;9.028;2023-04-01T07:14:55;10.50;99.90
24103;DHT22;12278;53.058;9.028;2023-04-01T07:18:58;10.50;99.90
24103;DHT22;12278;53.058;9.028;2023-04-01T07:23:00;10.60;99.90
24103;DHT22;12278;53.058;9.028;2023-04-01T07:27:02;10.60;99.90
24103;DHT22;12278;53.058;9.028;2023-04-01T07:35:13;10.60;99.90
24103;DHT22;12278;53.058;9.028;2023-04-01T07:43:22;10.80;99.90
24103;DHT22;12278;53.058;9.028;2023-04-01T07:47:34;10.80;99.90
24103;DHT22;12278;53.058;9.028;2023-04-01T07:51:56;11.00;99.90
24103;DHT22;12278;53.058;9.028;2023-04-01T08:17:50;11.50;99.90
24103;DHT22;12278;53.058;9.028;2023-04-01T08:21:54;11.40;99.90
24103;DHT22;12278;53.058;9.028;2023-04-01T08:34:39;11.40;99.90
24103;DHT22;12278;53.058;9.028;2023-04-01T08:39:01;11.50;99.90
24103;DHT22;12278;53.058;9.028;2023-04-01T09:09:18;12.40;99.90
24103;DHT22;12278;53.058;9.028;2023-04-01T09:17:51;13.30;99.90
24103;DHT22;12278;53.058;9.028;2023-04-01T09:22:21;13.40;99.90
24103;DHT22;12278;53.058;9.028;2023-04-01T09:30:41;13.70;99.90
24103;DHT22;12278;53.058;9.028;2023-04-01T09:34:57;13.70;99.90
24103;DHT22;12278;53.058;9.028;2023-04-01T09:39:38;13.60;99.90
24103;DHT22;12278;53.058;9.028;2023-04-01T10:48:46;11.00;99.90
24103;DHT22;12278;53.058;9.028;2023-04-01T11:02:15;11.40;99.90
24103;DHT22;12278;53.058;9.028;2023-04-01T12:17:41;10.20;99.90
24103;DHT22;12278;53.058;9.028;2023-04-01T12:22:06;10.30;99.90
24103;DHT22;12278;53.058;9.028;2023-04-01T12:31:14;10.20;99.90
24103;DHT22;12278;53.058;9.028;2023-04-01T12:35:23;10.50;99.90
24103;DHT22;12278;53.058;9.028;2023-04-01T12:44:20;10.30;99.90
24103;DHT22;12278;53.058;9.028;2023-04-01T12:57:21;10.30;99.90
24103;DHT22;12278;53.058;9.028;2023-04-01T13:28:33;9.90;99.90
24103;DHT22;12278;53.058;9.028;2023-04-01T13:32:55;9.90;99.90
24103;DHT22;12278;53.058;9.028;2023-04-01T13:54:41;9.40;99.90
24103;DHT22;12278;53.058;9.028;2023-04-01T14:12:09;9.20;99.90
24103;DHT22;12278;53.058;9.028;2023-04-01T14:21:21;9.00;99.90
24103;DHT22;12278;53.058;9.028;2023-04-01T14:25:33;9.10;99.90
24103;DHT22;12278;53.058;9.028;2023-04-01T14:34:21;9.00;99.90
24103;DHT22;12278;53.058;9.028;2023-04-01T14:51:33;8.60;99.90
24103;DHT22;12278;53.058;9.028;2023-04-01T14:55:54;8.50;99.90
24103;DHT22;12278;53.058;9.028;2023-04-01T15:00:13;8.70;99.90
24103;DHT22;12278;53.058;9.028;2023-04-01T15:04:46;8.80;99.90
24103;DHT22;12278;53.058;9.028;2023-04-01T15:13:58;8.60;99.90
24103;DHT22;12278;53.058;9.028;2023-04-01T15:18:08;8.50;99.90
24103;DHT22;12278;53.058;9.028;2023-04-01T15:31:19;8.20;99.90
24103;DHT22;12278;53.058;9.028;2023-04-01T15:36:02;8.10;99.90
24103;DHT22;12278;53.058;9.028;2023-04-01T15:57:51;7.90;99.90
24103;DHT22;12278;53.058;9.028;2023-04-01T16:02:09;7.70;99.90
24103;DHT22;12278;53.058;9.028;2023-04-01T16:15:37;7.60;99.90
24103;DHT22;12278;53.058;9.028;2023-04-01T16:24:51;7.70;99.90
24103;DHT22;12278;53.058;9.028;2023-04-01T16:41:57;7.50;99.90
24103;DHT22;12278;53.058;9.028;2023-04-01T16:50:24;7.40;99.90
24103;DHT22;12278;53.058;9.028;2023-04-01T16:55:00;7.40;99.90
24103;DHT22;12278;53.058;9.028;2023-04-01T17:03:33;7.30;99.90
24103;DHT22;12278;53.058;9.028;2023-04-01T17:43:21;7.00;99.90
24103;DHT22;12278;53.058;9.028;2023-04-01T17:47:43;7.00;99.90
24103;DHT22;12278;53.058;9.028;2023-04-01T17:57:02;6.90;99.90
24103;DHT22;12278;53.058;9.028;2023-04-01T18:23:09;6.40;99.90
24103;DHT22;12278;53.058;9.028;2023-04-01T18:31:43;6.40;99.90
24103;DHT22;12278;53.058;9.028;2023-04-01T18:36:08;6.40;99.90
24103;DHT22;12278;53.058;9.028;2023-04-01T18:53:35;6.20;99.90
24103;DHT22;12278;53.058;9.028;2023-04-01T19:02:34;6.10;99.90
24103;DHT22;12278;53.058;9.028;2023-04-01T19:06:54;6.10;99.90
24103;DHT22;12278;53.058;9.028;2023-04-01T19:11:05;6.10;99.90
24103;DHT22;12278;53.058;9.028;2023-04-01T19:19:51;6.00;99.90
24103;DHT22;12278;53.058;9.028;2023-04-01T19:24:20;6.00;99.90
24103;DHT22;12278;53.058;9.028;2023-04-01T19:37:02;6.00;99.90
24103;DHT22;12278;53.058;9.028;2023-04-01T19:41:29;5.90;99.90
24103;DHT22;12278;53.058;9.028;2023-04-01T19:45:53;5.90;99.90
24103;DHT22;12278;53.058;9.028;2023-04-01T20:03:28;5.70;99.90
24103;DHT22;12278;53.058;9.028;2023-04-01T20:07:35;5.70;99.90
24103;DHT22;12278;53.058;9.028;2023-04-01T20:16:07;5.70;99.90
24103;DHT22;12278;53.058;9.028;2023-04-01T20:28:23;5.70;99.90
24103;DHT22;12278;53.058;9.028;2023-04-01T20:41:20;5.70;99.90
24103;DHT22;12278;53.058;9.028;2023-04-01T21:02:55;5.50;99.90
24103;DHT22;12278;53.058;9.028;2023-04-01T21:11:32;5.40;99.90
24103;DHT22;12278;53.058;9.028;2023-04-01T21:28:50;5.10;99.90
24103;DHT22;12278;53.058;9.028;2023-04-01T21:46:10;5.20;99.90
24103;DHT22;12278;53.058;9.028;2023-04-01T22:20:41;4.60;99.90
24103;DHT22;12278;53.058;9.028;2023-04-01T22:32:47;4.20;99.90
24103;DHT22;12278;53.058;9.028;2023-04-01T22:36:50;4.20;99.90
24103;DHT22;12278;53.058;9.028;2023-04-01T22:50:37;3.90;99.90
24103;DHT22;12278;53.058;9.028;2023-04-01T22:59:37;3.70;99.90
24103;DHT22;12278;53.058;9.028;2023-04-01T23:03:30;3.70;99.90
24103;DHT22;12278;53.058;9.028;2023-04-01T23:11:50;3.70;99.90
24103;DHT22;12278;53.058;9.028;2023-04-01T23:15:54;3.60;99.90
24103;DHT22;12278;53.058;9.028;2023-04-01T23:32:28;3.40;99.90
24103;DHT22;12278;53.058;9.028;2023-04-01T23:36:31;3.30;99.90
24103;DHT22;12278;53.058;9.028;2023-04-01T23:40:36;3.30;99.90
24103;DHT22;12278;53.058;9.028;2023-04-01T23:44:38;3.40;99.90
24103;DHT22;12278;53.058;9.028;2023-04-01T23:48:42;3.30;99.90
24103;DHT22;12278;53.058;9.028;2023-04-01T23:52:48;3.30;99.90
24103;DHT22;12278;53.058;9.028;2023-04-01T23:56:53;3.30;99.90
